Time;durP1;ratioP1;P1;durP2;ratioP2;P2;SDS_P1;SDS_P2;PMS_P1;PMS_P2;Temp;Humidity;BMP_temperature;BMP_pressure;BME280_temperature;BME280_humidity;BME280_pressure;Samples;Min_cycle;Max_cycle;Signal;HPM_P1;HPM_P2
2022/11/10 00:02:46;;;;;;;19.20;3.63;;;;;;;10.36;85.66;101329.34;5096737;28;20520;-59
2022/11/10 00:05:34;;;;;;;16.25;3.17;;;;;;;10.37;85.95;101329.22;5096037;28;20043;-58
2022/11/10 00:08:21;;;;;;;20.20;3.20;;;;;;;10.33;86.21;101338.41;5081713;28;20489;-59
2022/11/10 00:11:08;;;;;;;19.55;2.97;;;;;;;10.33;86.20;101340.22;5096476;28;20040;-59
2022/11/10 00:16:59;;;;;;;20.13;3.42;;;;;;;10.36;85.70;101345.25;5096554;28;20070;-58
2022/11/10 00:17:03;;;;;;;21.77;2.90;;;;;;;10.43;85.75;101338.41;5084381;28;20050;-59
2022/11/10 00:19:50;;;;;;;14.65;3.00;;;;;;;10.34;86.26;101348.03;5096430;28;20532;-59
2022/11/10 00:22:38;;;;;;;18.58;3.13;;;;;;;10.34;86.46;101348.03;5096447;28;20114;-59
2022/11/10 00:25:25;;;;;;;22.80;2.95;;;;;;;10.40;86.16;101338.69;5096523;28;20066;-59
2022/11/10 00:28:12;;;;;;;19.30;2.88;;;;;;;10.29;86.47;101349.41;5074911;28;20497;-59
2022/11/10 00:31:04;;;;;;;15.60;2.83;;;;;;;10.26;86.74;101341.72;5088748;28;20045;-59
2022/11/10 00:33:51;;;;;;;16.38;2.83;;;;;;;10.24;86.97;101347.19;5075702;28;20505;-59
2022/11/10 00:36:38;;;;;;;16.55;2.90;;;;;;;10.20;87.00;101351.06;5088852;28;20131;-59
2022/11/10 00:39:24;;;;;;;17.02;3.10;;;;;;;10.18;86.70;101351.19;5038387;28;20040;-59
2022/11/10 00:42:11;;;;;;;14.63;3.10;;;;;;;10.18;86.96;101356.47;5075765;28;20075;-59
2022/11/10 00:44:58;;;;;;;16.65;2.78;;;;;;;10.17;87.29;101369.91;5075577;28;20036;-59
2022/11/10 00:47:45;;;;;;;17.85;2.95;;;;;;;10.19;86.98;101365.31;5075367;28;20068;-59
2022/11/10 00:50:31;;;;;;;20.75;3.08;;;;;;;10.19;87.19;101370.59;5075543;28;20045;-59
2022/11/10 00:53:18;;;;;;;23.63;3.15;;;;;;;10.10;87.64;101374.06;5075651;28;20552;-58
2022/11/10 00:56:05;;;;;;;24.30;3.47;;;;;;;10.11;87.51;101381.88;5075454;28;20048;-59
2022/11/10 00:58:52;;;;;;;23.90;3.53;;;;;;;10.21;87.10;101375.78;5075094;28;20036;-60
2022/11/10 01:01:38;;;;;;;19.00;3.00;;;;;;;10.11;87.67;101373.06;5075030;28;20045;-59
2022/11/10 01:04:25;;;;;;;24.73;3.55;;;;;;;10.13;87.60;101368.47;5074261;28;20049;-59
2022/11/10 01:07:12;;;;;;;18.42;4.07;;;;;;;10.06;87.72;101370.84;5074775;28;20037;-59
2022/11/10 01:09:58;;;;;;;16.05;3.10;;;;;;;10.07;87.87;101377.81;5075406;28;20066;-59
2022/11/10 01:12:45;;;;;;;25.77;3.17;;;;;;;10.15;87.57;101383.28;5074902;28;20119;-59
2022/11/10 01:15:32;;;;;;;17.23;3.05;;;;;;;10.13;87.63;101381.72;5075080;28;20063;-59
2022/11/10 01:18:18;;;;;;;13.52;3.00;;;;;;;10.15;87.75;101385.09;5073925;28;20494;-59
2022/11/10 01:21:05;;;;;;;11.85;3.40;;;;;;;10.12;87.85;101388.03;5075035;28;20405;-59
2022/11/10 01:23:53;;;;;;;21.00;3.25;;;;;;;10.08;87.99;101384.81;5074841;28;20090;-60
2022/11/10 01:26:40;;;;;;;22.38;3.03;;;;;;;10.11;87.74;101394.28;5082106;28;20440;-59
2022/11/10 01:29:26;;;;;;;21.27;3.00;;;;;;;10.19;87.39;101407.72;5092825;28;20044;-59
2022/11/10 01:32:13;;;;;;;14.27;2.80;;;;;;;10.11;87.63;101408.38;5094201;28;20070;-60
2022/11/10 01:35:00;;;;;;;21.30;3.72;;;;;;;10.22;87.56;101403.94;5094143;28;20052;-60
2022/11/10 01:37:46;;;;;;;14.50;2.70;;;;;;;10.12;87.81;101406.59;5080061;28;20127;-59
2022/11/10 01:40:33;;;;;;;19.98;2.88;;;;;;;10.10;87.73;101413.84;5056609;28;20046;-60
2022/11/10 01:43:20;;;;;;;27.38;2.88;;;;;;;10.12;87.78;101411.88;5094989;28;20040;-59
2022/11/10 01:46:10;;;;;;;19.13;3.35;;;;;;;10.09;87.96;101412.97;5079232;28;20443;-59
2022/11/10 01:49:01;;;;;;;26.63;3.25;;;;;;;10.04;88.18;101412.56;5094728;28;20109;-59
2022/11/10 01:51:53;;;;;;;18.02;3.65;;;;;;;10.08;87.98;101416.63;5094501;28;20036;-60
2022/11/10 01:54:43;;;;;;;17.42;2.78;;;;;;;10.00;88.26;101421.72;5094554;28;20039;-59
2022/11/10 01:57:30;;;;;;;17.35;3.00;;;;;;;10.08;88.25;101424.56;5094343;28;20123;-59
2022/11/10 02:00:18;;;;;;;23.98;3.95;;;;;;;10.12;87.82;101428.63;5094566;28;20036;-59
2022/11/10 02:03:12;;;;;;;22.15;2.78;;;;;;;10.06;88.04;101438.91;5094377;28;20378;-59
2022/11/10 02:06:00;;;;;;;21.42;3.05;;;;;;;10.05;88.30;101442.56;5093586;28;20060;-59
2022/11/10 02:08:47;;;;;;;12.70;3.03;;;;;;;9.96;88.58;101441.53;5094129;28;20044;-59
2022/11/10 02:11:36;;;;;;;19.05;3.25;;;;;;;9.95;88.81;101430.09;5093451;28;20036;-59
2022/11/10 02:14:23;;;;;;;19.58;3.13;;;;;;;10.02;88.25;101441.00;5094064;28;20040;-60
2022/11/10 02:17:10;;;;;;;22.10;2.97;;;;;;;9.94;88.75;101443.47;5093979;28;20115;-59
2022/11/10 02:19:59;;;;;;;21.50;2.85;;;;;;;10.00;88.67;101442.94;5094017;28;20393;-59
2022/11/10 02:22:47;;;;;;;22.95;3.03;;;;;;;9.97;88.46;101446.72;5093995;28;20131;-59
2022/11/10 02:25:33;;;;;;;16.23;3.08;;;;;;;9.79;89.30;101445.66;5093853;28;20071;-59
2022/11/10 02:28:20;;;;;;;22.35;3.10;;;;;;;9.83;89.20;101448.88;5094167;28;20039;-59
2022/11/10 02:31:08;;;;;;;12.43;2.75;;;;;;;9.88;89.20;101446.66;5093719;28;20047;-59
2022/11/10 02:33:55;;;;;;;15.73;2.95;;;;;;;9.84;89.31;101447.88;5093937;28;20090;-59
2022/11/10 02:36:41;;;;;;;21.63;2.92;;;;;;;9.76;89.58;101449.38;5078815;28;20040;-59
2022/11/10 02:39:28;;;;;;;19.90;3.72;;;;;;;9.83;89.29;101452.34;5023943;28;21265;-59
2022/11/10 02:42:14;;;;;;;20.85;3.30;;;;;;;9.85;89.37;101457.53;5075687;28;20519;-60
2022/11/10 02:45:01;;;;;;;16.92;2.60;;;;;;;9.82;89.41;101449.84;5093554;28;20063;-60
2022/11/10 02:47:48;;;;;;;27.73;3.67;;;;;;;9.83;89.63;101443.56;5093359;28;20048;-60
2022/11/10 02:50:35;;;;;;;17.98;3.00;;;;;;;9.83;89.56;101447.06;5078490;28;20063;-59
2022/11/10 02:53:21;;;;;;;20.00;3.55;;;;;;;9.77;89.68;101450.25;5078629;28;20044;-59
2022/11/10 02:56:09;;;;;;;19.55;3.22;;;;;;;9.68;89.90;101454.50;5093368;28;20044;-59
2022/11/10 02:58:55;;;;;;;18.08;3.08;;;;;;;9.67;90.50;101460.78;5093256;28;20031;-60
2022/11/10 03:01:42;;;;;;;19.88;2.90;;;;;;;9.80;90.13;101468.50;5078328;28;20039;-59
2022/11/10 03:04:29;;;;;;;26.40;2.85;;;;;;;9.74;90.32;101469.03;5092998;28;20068;-59
2022/11/10 03:07:15;;;;;;;19.73;2.90;;;;;;;9.72;90.71;101486.88;5093106;28;20044;-59
2022/11/10 03:10:03;;;;;;;26.23;3.38;;;;;;;9.73;90.40;101489.41;5093250;28;20048;-60
2022/11/10 03:12:56;;;;;;;22.83;3.00;;;;;;;9.76;90.50;101491.78;5075296;28;20378;-60
2022/11/10 03:15:42;;;;;;;;;;;;;;;9.76;90.61;101490.94;5093924;28;20094;-59
2022/11/10 03:18:29;;;;;;;27.15;3.08;;;;;;;9.77;90.41;101500.59;5093151;28;19920;-60
2022/11/10 03:21:16;;;;;;;18.55;2.70;;;;;;;9.82;90.16;101492.22;5093134;28;20039;-60
2022/11/10 03:24:03;;;;;;;23.05;3.08;;;;;;;9.76;90.37;101488.28;5092591;28;20044;-59
2022/11/10 03:26:50;;;;;;;23.80;2.75;;;;;;;9.83;90.30;101481.50;5092825;28;20080;-59
2022/11/10 03:29:36;;;;;;;23.58;2.95;;;;;;;9.82;90.48;101478.97;5092799;28;20042;-59
2022/11/10 03:32:23;;;;;;;20.73;2.80;;;;;;;9.92;89.91;101495.78;5091049;28;20046;-59
2022/11/10 03:35:09;;;;;;;22.45;3.33;;;;;;;9.72;90.78;101498.31;5092633;28;20036;-59
2022/11/10 03:37:56;;;;;;;27.42;3.13;;;;;;;9.73;90.96;101507.09;5077771;28;20070;-59
2022/11/10 03:40:43;;;;;;;17.65;2.55;;;;;;;9.75;90.85;101505.16;5054909;28;20040;-59
2022/11/10 03:43:49;;;;;;;23.42;3.00;;;;;;;9.83;90.58;101497.41;5081045;28;20032;-59
2022/11/10 03:46:36;;;;;;;23.02;3.17;;;;;;;9.82;90.53;101510.78;5092454;28;20051;-59
2022/11/10 03:49:22;;;;;;;24.92;3.10;;;;;;;9.81;90.51;101515.25;5078086;28;20039;-59
2022/11/10 03:52:09;;;;;;;25.77;3.22;;;;;;;9.83;90.55;101526.56;5092542;28;20842;-59
2022/11/10 03:54:55;;;;;;;20.55;3.22;;;;;;;9.77;90.16;101527.09;5093035;28;20097;-59
2022/11/10 03:57:45;;;;;;;26.90;3.33;;;;;;;9.80;90.43;101525.03;5092716;28;20044;-60
2022/11/10 04:00:32;;;;;;;28.10;3.42;;;;;;;9.80;90.51;101532.09;5092855;28;20101;-59
2022/11/10 04:03:19;;;;;;;26.50;3.40;;;;;;;9.78;90.69;101539.34;5092437;28;20501;-59
2022/11/10 04:09:13;;;;;;;15.65;3.22;;;;;;;9.72;90.79;101553.13;5092419;28;20036;-59
2022/11/10 04:15:42;;;;;;;18.25;3.33;;;;;;;9.73;90.70;101555.66;5092318;28;20036;-59
2022/11/10 04:18:20;;;;;;;17.77;2.90;;;;;;;9.75;90.65;101569.59;5080577;28;20083;-59
2022/11/10 04:21:07;;;;;;;25.13;3.05;;;;;;;9.72;90.74;101574.31;5092607;28;20047;-59
2022/11/10 04:23:53;;;;;;;23.30;3.30;;;;;;;9.66;91.13;101573.03;5077742;28;20048;-59
2022/11/10 04:26:41;;;;;;;24.02;2.95;;;;;;;9.63;91.31;101586.53;5092116;28;20044;-59
2022/11/10 04:29:28;;;;;;;19.83;3.45;;;;;;;9.66;91.23;101588.06;5092466;28;20064;-59
2022/11/10 04:32:14;;;;;;;23.33;3.22;;;;;;;9.60;91.33;101584.13;5092122;28;20078;-59
2022/11/10 04:35:01;;;;;;;21.20;3.33;;;;;;;9.55;91.82;101591.59;5094405;28;20094;-59
2022/11/10 04:37:48;;;;;;;19.83;3.15;;;;;;;9.58;91.78;101589.53;5095903;28;20044;-60
2022/11/10 04:40:34;;;;;;;27.10;4.05;;;;;;;9.58;91.72;101594.00;5058143;28;20048;-59
2022/11/10 04:43:21;;;;;;;25.63;3.30;;;;;;;9.56;91.79;101596.78;5095719;28;20046;-60
2022/11/10 04:46:34;;;;;;;22.50;2.95;;;;;;;9.49;92.34;101594.75;5095977;28;20068;-60
2022/11/10 04:49:20;;;;;;;25.95;3.83;;;;;;;9.49;92.33;101600.06;5095519;28;20054;-59
2022/11/10 04:52:07;;;;;;;31.83;4.78;;;;;;;9.43;92.44;101611.16;5080883;28;20435;-59
2022/11/10 04:54:53;;;;;;;21.55;3.50;;;;;;;9.47;92.65;101616.06;5095503;28;20044;-59
2022/11/10 04:57:41;;;;;;;28.67;3.30;;;;;;;9.44;92.64;101623.41;5095904;28;20123;-60
2022/11/10 05:00:28;;;;;;;22.90;3.20;;;;;;;9.49;92.57;101630.03;5095453;28;20039;-60
2022/11/10 05:03:15;;;;;;;25.15;4.10;;;;;;;9.52;92.29;101628.94;5095666;28;20097;-60
2022/11/10 05:06:02;;;;;;;22.45;3.60;;;;;;;9.49;92.32;101640.63;5094743;28;20396;-59
2022/11/10 05:08:49;;;;;;;28.30;3.53;;;;;;;9.53;92.46;101641.22;5095518;28;20452;-59
2022/11/10 05:11:35;;;;;;;23.30;3.10;;;;;;;9.55;92.10;101640.13;5095163;28;20043;-59
2022/11/10 05:14:22;;;;;;;26.33;3.25;;;;;;;9.55;92.19;101642.78;5095418;28;20044;-59
2022/11/10 05:17:08;;;;;;;24.15;3.10;;;;;;;9.47;92.71;101652.31;5094756;28;20044;-59
2022/11/10 05:19:55;;;;;;;27.77;3.65;;;;;;;9.54;92.17;101649.03;5094915;28;20431;-60
2022/11/10 05:23:36;;;;;;;23.50;3.70;;;;;;;9.57;92.01;101655.91;5094830;28;20046;-60
2022/11/10 05:25:53;;;;;;;23.02;3.40;;;;;;;9.52;92.26;101664.22;5094851;28;20044;-60
2022/11/10 05:28:42;;;;;;;30.10;3.78;;;;;;;9.55;92.04;101676.34;5094950;28;20036;-60
2022/11/10 05:31:29;;;;;;;22.48;3.60;;;;;;;9.59;91.94;101675.16;5077058;28;20131;-60
2022/11/10 05:34:15;;;;;;;25.50;4.07;;;;;;;9.66;91.58;101678.13;5074595;28;20048;-60
2022/11/10 05:37:02;;;;;;;36.05;3.85;;;;;;;9.63;91.81;101684.53;5074776;28;20401;-60
2022/11/10 05:39:49;;;;;;;28.67;3.58;;;;;;;9.68;91.73;101681.50;5038372;28;20119;-60
2022/11/10 05:42:46;;;;;;;31.20;3.50;;;;;;;9.59;91.62;101683.13;5056965;28;20079;-61
2022/11/10 05:45:33;;;;;;;25.83;3.45;;;;;;;9.56;91.89;101684.19;5073924;28;20072;-60
2022/11/10 05:48:20;;;;;;;28.90;3.08;;;;;;;9.46;92.62;101691.22;5074128;28;20040;-61
2022/11/10 05:51:06;;;;;;;24.05;3.63;;;;;;;9.46;92.64;101685.03;5062464;28;20404;-60
2022/11/10 05:53:53;;;;;;;32.78;4.35;;;;;;;9.30;93.29;101688.09;5094577;28;20039;-60
2022/11/10 05:56:40;;;;;;;19.52;3.85;;;;;;;9.27;93.78;101694.47;5079144;28;20068;-60
2022/11/10 05:59:26;;;;;;;23.50;3.10;;;;;;;9.36;93.33;101690.25;5094642;28;20067;-60
2022/11/10 06:02:13;;;;;;;26.92;3.60;;;;;;;9.33;93.57;101695.78;5076134;28;20051;-61
2022/11/10 06:05:00;;;;;;;22.77;3.65;;;;;;;9.32;93.60;101707.38;5079180;28;20119;-61
2022/11/10 06:07:46;;;;;;;30.67;2.92;;;;;;;9.29;94.01;101700.47;5076267;28;20055;-60
2022/11/10 06:10:34;;;;;;;24.85;3.35;;;;;;;9.38;93.07;101705.03;5094403;28;20032;-60
2022/11/10 06:13:21;;;;;;;31.73;3.75;;;;;;;9.22;93.79;101700.16;5075909;28;20408;-60
2022/11/10 06:16:08;;;;;;;20.20;3.08;;;;;;;9.32;93.68;101702.91;5094286;28;20493;-60
2022/11/10 06:18:54;;;;;;;23.80;3.22;;;;;;;9.21;94.21;101711.69;5093894;28;20044;-61
2022/11/10 06:21:41;;;;;;;23.27;3.70;;;;;;;9.24;94.33;101710.63;5094011;28;20036;-61
2022/11/10 06:24:28;;;;;;;22.65;3.35;;;;;;;9.25;94.04;101717.59;5094059;28;20580;-60
2022/11/10 06:27:14;;;;;;;21.23;3.53;;;;;;;9.23;94.13;101723.00;5093496;28;20052;-61
2022/11/10 06:30:03;;;;;;;27.10;3.47;;;;;;;9.19;94.48;101728.66;5093731;28;20150;-60
2022/11/10 06:32:49;;;;;;;22.33;3.25;;;;;;;9.13;94.94;101737.06;5093394;28;20094;-61
2022/11/10 06:35:36;;;;;;;26.05;3.63;;;;;;;9.15;94.88;101749.25;5093846;28;20040;-60
2022/11/10 06:38:23;;;;;;;22.50;3.22;;;;;;;9.13;94.76;101737.06;5093425;28;20131;-60
2022/11/10 06:41:09;;;;;;;29.13;3.60;;;;;;;9.16;94.53;101747.44;5056421;28;20131;-60
2022/11/10 06:43:56;;;;;;;26.52;3.58;;;;;;;9.15;94.49;101746.59;5092997;28;20478;-61
2022/11/10 06:46:43;;;;;;;22.55;3.45;;;;;;;9.11;94.68;101745.13;5092523;28;20044;-61
2022/11/10 06:49:29;;;;;;;21.92;3.20;;;;;;;9.14;94.76;101752.00;5092423;28;20161;-61
2022/11/10 06:52:16;;;;;;;20.70;3.60;;;;;;;9.09;94.95;101760.28;5093055;28;20523;-61
2022/11/10 06:55:03;;;;;;;26.83;3.28;;;;;;;9.15;94.65;101769.56;5092391;28;20064;-61
2022/11/10 06:57:49;;;;;;;27.80;3.97;;;;;;;9.12;94.64;101773.31;5092977;28;20497;-60
2022/11/10 07:00:36;;;;;;;23.05;4.50;;;;;;;9.22;94.33;101784.00;5093023;28;20519;-60
2022/11/10 07:03:23;;;;;;;30.95;4.80;;;;;;;9.24;94.36;101792.69;5078376;28;20397;-60
2022/11/10 07:06:10;;;;;;;28.15;5.13;;;;;;;9.25;94.24;101797.03;5062649;28;20060;-61
2022/11/10 07:08:57;;;;;;;26.88;5.55;;;;;;;9.21;94.23;101801.72;5070918;28;20043;-60
2022/11/10 07:11:44;;;;;;;25.27;5.45;;;;;;;9.20;94.03;101809.75;5070550;28;20525;-60
2022/11/10 07:14:30;;;;;;;30.30;5.97;;;;;;;9.30;93.85;101807.25;5054391;28;20464;-60
2022/11/10 07:17:17;;;;;;;30.50;5.07;;;;;;;9.30;93.72;101825.81;5072405;28;20075;-61
2022/11/10 07:20:04;;;;;;;23.38;4.45;;;;;;;9.43;93.24;101817.75;5072900;28;20051;-59
2022/11/10 07:22:58;;;;;;;19.55;3.67;;;;;;;9.44;93.27;101830.00;5090970;28;20101;-59
2022/11/10 07:25:44;;;;;;;35.95;4.35;;;;;;;9.46;92.79;101841.31;5075052;28;20066;-59
2022/11/10 07:28:31;;;;;;;18.63;3.20;;;;;;;9.50;92.72;101848.91;5092871;28;20435;-59
2022/11/10 07:31:18;;;;;;;19.02;4.75;;;;;;;9.55;92.78;101849.41;5092885;28;20036;-59
2022/11/10 07:34:05;;;;;;;29.90;3.45;;;;;;;9.55;93.06;101853.84;5098986;28;20043;-59
2022/11/10 07:36:51;;;;;;;33.75;4.18;;;;;;;9.58;92.85;101857.09;5105005;28;20155;-59
2022/11/10 07:39:38;;;;;;;21.15;3.83;;;;;;;9.60;92.36;101856.97;5043613;28;20044;-59
2022/11/10 07:42:25;;;;;;;25.60;4.20;;;;;;;9.68;92.05;101862.53;5091933;28;20070;-59
2022/11/10 07:45:11;;;;;;;22.73;3.88;;;;;;;9.59;92.06;101857.97;5102346;28;20036;-59
2022/11/10 07:48:01;;;;;;;24.27;3.88;;;;;;;9.66;91.85;101860.94;5083396;28;20044;-59
2022/11/10 07:50:49;;;;;;;25.98;3.70;;;;;;;9.74;91.54;101856.72;5070604;28;20067;-58
2022/11/10 07:53:36;;;;;;;25.27;3.58;;;;;;;9.71;91.41;101859.63;5093951;28;20396;-59
2022/11/10 07:56:22;;;;;;;30.60;3.58;;;;;;;9.88;90.92;101873.38;5093238;28;20040;-58
2022/11/10 07:59:09;;;;;;;22.15;3.33;;;;;;;9.82;91.07;101879.97;5098359;28;20035;-58
2022/11/10 08:01:56;;;;;;;23.75;3.65;;;;;;;9.94;90.20;101894.91;5085055;28;20110;-58
2022/11/10 08:04:43;;;;;;;23.45;3.67;;;;;;;10.05;90.02;101891.41;5084938;28;20040;-59
2022/11/10 08:07:30;;;;;;;22.10;3.80;;;;;;;10.38;88.78;101900.28;5094359;28;20031;-59
2022/11/10 08:10:17;;;;;;;28.13;4.43;;;;;;;10.49;87.70;101910.88;5090974;28;20373;-58
2022/11/10 08:13:05;;;;;;;26.27;3.88;;;;;;;10.51;87.71;101902.78;5108499;28;20119;-59
2022/11/10 08:15:52;;;;;;;27.98;3.53;;;;;;;10.39;88.62;101912.59;5096387;28;20036;-59
2022/11/10 08:18:39;;;;;;;24.70;4.03;;;;;;;10.22;88.81;101913.91;5108239;28;20044;-59
2022/11/10 08:21:25;;;;;;;26.85;4.15;;;;;;;10.31;88.69;101918.50;5089790;28;20054;-59
2022/11/10 08:24:12;;;;;;;21.80;4.55;;;;;;;10.37;88.89;101925.16;5098554;28;20059;-59
2022/11/10 08:26:59;;;;;;;24.40;4.30;;;;;;;10.42;88.77;101914.16;5106033;28;20492;-59
2022/11/10 08:29:45;;;;;;;23.70;3.60;;;;;;;10.44;88.49;101913.06;5104011;28;20042;-59
2022/11/10 08:32:32;;;;;;;27.55;4.07;;;;;;;10.49;88.62;101924.13;5089485;28;20856;-59
2022/11/10 08:35:19;;;;;;;27.08;4.10;;;;;;;10.57;88.09;101928.84;5093377;28;20044;-59
2022/11/10 08:38:08;;;;;;;23.73;4.32;;;;;;;10.58;87.73;101925.19;5106911;28;20131;-58
2022/11/10 08:40:56;;;;;;;27.10;4.38;;;;;;;10.63;87.54;101938.09;5053489;28;20036;-59
2022/11/10 08:43:43;;;;;;;24.38;3.90;;;;;;;10.61;87.49;101932.09;5084783;28;20489;-59
2022/11/10 08:46:29;;;;;;;23.65;4.70;;;;;;;10.69;87.81;101933.13;5103768;28;20208;-58
2022/11/10 08:49:16;;;;;;;22.17;3.58;;;;;;;10.73;87.75;101934.56;5080546;28;20489;-58
2022/11/10 08:52:03;;;;;;;27.75;4.32;;;;;;;10.74;87.22;101943.38;5103392;28;20067;-59
2022/11/10 08:54:50;;;;;;;26.08;4.28;;;;;;;10.82;86.97;101958.66;5097737;28;20052;-60
2022/11/10 08:57:36;;;;;;;19.70;3.85;;;;;;;10.84;86.68;101956.72;5087135;28;20031;-59
2022/11/10 09:00:23;;;;;;;30.48;4.45;;;;;;;10.95;86.98;101967.28;5098885;28;20527;-59
2022/11/10 09:03:13;;;;;;;30.45;4.30;;;;;;;11.05;87.21;101970.88;5105560;28;20047;-59
2022/11/10 09:06:00;;;;;;;26.35;4.00;;;;;;;11.08;86.09;101967.16;5095301;28;20170;-59
2022/11/10 09:08:46;;;;;;;20.58;3.60;;;;;;;11.15;86.52;101970.94;5103276;28;20067;-59
2022/11/10 09:11:33;;;;;;;23.33;3.85;;;;;;;11.31;85.97;101962.56;5100967;28;20117;-59
2022/11/10 09:14:20;;;;;;;27.38;4.03;;;;;;;11.35;85.64;101966.66;5091147;28;20127;-59
2022/11/10 09:17:06;;;;;;;21.00;3.78;;;;;;;11.49;84.46;101971.63;5077193;28;20054;-59
2022/11/10 09:19:53;;;;;;;26.48;3.83;;;;;;;11.47;84.81;101970.91;5098534;28;20497;-59
2022/11/10 09:22:40;;;;;;;26.02;4.53;;;;;;;11.61;84.87;101971.56;5107426;28;20040;-60
2022/11/10 09:25:26;;;;;;;25.05;4.05;;;;;;;11.63;84.88;101977.59;5109623;28;20746;-59
2022/11/10 09:28:14;;;;;;;37.80;6.03;;;;;;;11.69;84.46;101988.53;5113957;28;20044;-59
2022/11/10 09:31:01;;;;;;;23.35;4.30;;;;;;;11.70;84.33;101984.91;5097786;28;20094;-60
2022/11/10 09:33:48;;;;;;;16.02;3.03;;;;;;;11.79;83.42;101972.66;5085570;28;20060;-59
2022/11/10 09:36:35;;;;;;;28.98;4.00;;;;;;;11.82;83.19;101968.88;5098782;28;20039;-59
2022/11/10 09:39:21;;;;;;;33.67;5.07;;;;;;;11.85;84.48;101980.09;5049807;28;20046;-59
2022/11/10 09:42:37;;;;;;;26.92;4.20;;;;;;;11.92;83.32;101990.25;5077291;28;20404;-60
2022/11/10 09:45:31;;;;;;;31.40;4.38;;;;;;;11.93;83.49;101997.22;5104119;28;20048;-66
2022/11/10 09:48:26;;;;;;;24.17;3.63;;;;;;;11.99;83.44;101992.22;5085685;28;20047;-65
2022/11/10 09:51:23;;;;;;;26.83;4.60;;;;;;;12.08;82.41;101999.41;5088713;28;20040;-66
2022/11/10 09:56:59;;;;;;;25.00;3.72;;;;;;;12.25;82.81;102007.75;5121947;27;20382;-65
2022/11/10 09:59:46;;;;;;;26.42;4.22;;;;;;;12.37;81.70;102008.47;5104906;28;20050;-65
2022/11/10 10:02:40;;;;;;;27.85;3.78;;;;;;;12.46;81.08;102016.50;5097935;28;20544;-65
2022/11/10 10:05:50;;;;;;;27.80;3.90;;;;;;;12.43;81.02;102015.94;5079637;28;20115;-65
2022/11/10 10:09:04;;;;;;;22.90;4.00;;;;;;;12.59;80.94;102023.41;5100594;28;20101;-66
2022/11/10 10:12:30;;;;;;;25.48;3.95;;;;;;;12.74;80.54;102021.19;5097822;28;20401;-59
2022/11/10 10:15:43;;;;;;;26.45;3.90;;;;;;;12.84;79.85;102022.03;5111392;27;20032;-59
2022/11/10 10:21:35;;;;;;;31.00;3.47;;;;;;;12.95;78.92;102027.25;5101623;27;20415;-59
2022/11/10 10:24:26;;;;;;;;;;;;;;;12.91;78.12;102019.69;5105774;28;20092;-59
2022/11/10 10:27:24;;;;;;;24.48;3.30;;;;;;;13.14;77.70;102012.28;5084934;28;19916;-59
2022/11/10 10:30:14;;;;;;;30.55;3.40;;;;;;;13.24;77.83;102021.09;5105143;28;20497;-59
2022/11/10 10:33:13;;;;;;;20.58;4.28;;;;;;;13.49;76.22;102024.22;5102500;28;20200;-60
2022/11/10 10:36:07;;;;;;;24.73;3.17;;;;;;;13.53;75.97;102026.44;5109193;28;20105;-59
2022/11/10 10:38:59;;;;;;;16.88;2.97;;;;;;;13.63;74.75;102024.59;5080435;28;20119;-59
2022/11/10 10:41:46;;;;;;;27.20;3.35;;;;;;;13.98;73.19;102025.78;5103744;28;20032;-61
2022/11/10 10:44:33;;;;;;;36.17;4.22;;;;;;;15.59;67.30;102021.72;5097484;28;20048;-64
2022/11/10 10:47:35;;;;;;;20.67;3.25;;;;;;;17.54;58.80;102027.09;5107785;28;20119;-60
2022/11/10 10:50:34;;;;;;;20.00;3.25;;;;;;;18.21;55.35;102029.50;5103300;27;20123;-61
2022/11/10 10:53:22;;;;;;;28.52;4.00;;;;;;;18.54;54.76;102018.63;5094257;28;20465;-61
2022/11/10 10:56:20;;;;;;;29.35;3.65;;;;;;;18.70;53.58;102035.66;5103444;28;20576;-61
2022/11/10 10:59:19;;;;;;;17.83;3.22;;;;;;;18.34;54.11;102028.94;5103119;28;20079;-61
2022/11/10 11:02:25;;;;;;;20.52;3.33;;;;;;;19.70;50.64;102037.44;5092435;28;20047;-59
2022/11/10 11:05:17;;;;;;;23.95;3.63;;;;;;;20.05;49.14;102037.81;5086956;28;20036;-66
2022/11/10 11:08:04;;;;;;;23.98;3.50;;;;;;;20.66;47.07;102030.31;5096220;28;20222;-66
2022/11/10 11:10:51;;;;;;;21.63;3.22;;;;;;;21.06;46.53;102040.72;5083406;28;20050;-66
2022/11/10 11:13:38;;;;;;;22.25;2.92;;;;;;;21.45;44.09;102040.28;5105091;28;20054;-66
2022/11/10 11:16:24;;;;;;;25.20;3.30;;;;;;;21.54;44.30;102056.31;5094337;28;20127;-66
2022/11/10 11:19:11;;;;;;;16.95;3.40;;;;;;;22.47;42.51;102056.97;5085511;28;20401;-65
2022/11/10 11:22:38;;;;;;;17.35;2.95;;;;;;;22.32;41.70;102067.91;5104994;28;20044;-65
2022/11/10 11:25:42;;;;;;;19.27;3.20;;;;;;;22.13;42.50;102072.13;5101405;28;20050;-65
2022/11/10 11:28:43;;;;;;;18.92;3.00;;;;;;;23.41;40.03;102070.75;5092255;28;20055;-65
2022/11/10 11:32:03;;;;;;;20.00;2.92;;;;;;;22.21;41.50;102073.84;5082448;28;20044;-66
2022/11/10 11:35:17;;;;;;;19.48;2.95;;;;;;;21.97;41.91;102070.56;5093771;28;20127;-65
2022/11/10 11:38:33;;;;;;;18.80;3.15;;;;;;;21.36;43.11;102078.38;5089140;28;20382;-65
2022/11/10 11:41:45;;;;;;;15.13;2.63;;;;;;;21.84;42.23;102079.41;5059500;28;20142;-65
2022/11/10 11:45:04;;;;;;;15.93;2.50;;;;;;;21.06;42.75;102089.28;5075979;28;20056;-65
2022/11/10 11:50:43;;;;;;;14.93;2.67;;;;;;;18.87;48.60;102085.66;5065966;28;20904;-64
2022/11/10 11:54:10;;;;;;;16.70;2.60;;;;;;;18.86;48.96;102088.53;5049585;28;20095;-64
2022/11/10 11:57:37;;;;;;;17.83;2.45;;;;;;;17.73;51.94;102084.94;5050691;28;20116;-64
2022/11/10 12:00:32;;;;;;;19.67;2.53;;;;;;;17.40;52.69;102089.47;5019359;28;20462;-59
2022/11/10 12:03:59;;;;;;;13.38;2.20;;;;;;;17.26;52.24;102096.31;5054934;28;20402;-59
2022/11/10 12:12:31;;;;;;;11.63;1.92;;;;;;;17.14;51.75;102095.78;5105649;27;20898;-59
2022/11/10 12:15:31;;;;;;;11.30;2.15;;;;;;;16.77;52.19;102098.81;5079257;28;20036;-58
2022/11/10 12:18:28;;;;;;;17.27;2.58;;;;;;;17.59;50.23;102097.19;5084530;28;20054;-53
2022/11/10 12:21:32;;;;;;;15.63;2.70;;;;;;;18.75;48.66;102093.25;5081596;28;20127;-51
2022/11/10 12:24:48;;;;;;;12.07;2.78;;;;;;;19.23;46.85;102100.41;5090022;28;20043;-52
2022/11/10 12:27:58;;;;;;;16.90;2.60;;;;;;;19.30;46.13;102094.16;5093086;28;20040;-52
2022/11/10 12:30:48;;;;;;;13.10;3.08;;;;;;;19.21;45.74;102103.28;5076693;28;20564;-52
2022/11/10 12:33:40;;;;;;;14.50;2.92;;;;;;;18.53;47.19;102110.16;5101164;28;20520;-53
2022/11/10 12:36:30;;;;;;;15.80;2.95;;;;;;;18.20;48.16;102111.06;5077099;28;20047;-53
2022/11/10 12:39:23;;;;;;;16.40;4.85;;;;;;;18.63;47.17;102109.94;5062612;28;20062;-53
2022/11/10 12:42:16;;;;;;;10.85;2.05;;;;;;;18.73;46.12;102111.41;5080886;28;21833;-59
2022/11/10 12:45:07;;;;;;;13.40;2.42;;;;;;;19.53;45.33;102104.06;5083877;28;20054;-61
2022/11/10 12:47:54;;;;;;;13.02;2.15;;;;;;;19.16;45.57;102105.69;5080214;28;20073;-60
2022/11/10 12:51:06;;;;;;;16.23;2.30;;;;;;;18.59;45.74;102104.06;5088573;28;20036;-59
2022/11/10 12:53:53;;;;;;;14.23;2.40;;;;;;;18.06;47.44;102109.09;5085647;28;20570;-60
2022/11/10 12:56:47;;;;;;;8.65;1.80;;;;;;;18.80;46.85;102114.22;5094038;28;20071;-59
2022/11/10 12:59:38;;;;;;;11.82;1.95;;;;;;;18.77;46.71;102125.31;5084267;28;20464;-59
2022/11/10 13:02:39;;;;;;;14.73;2.28;;;;;;;19.13;45.26;102125.69;5081961;28;20134;-60
2022/11/10 13:05:31;;;;;;;12.87;2.70;;;;;;;19.08;45.82;102132.59;5079363;28;20043;-59
2022/11/10 13:08:26;;;;;;;11.30;2.30;;;;;;;19.33;44.99;102131.44;5087358;28;20396;-60
2022/11/10 13:11:18;;;;;;;18.33;2.33;;;;;;;19.25;45.21;102141.44;5056205;28;20048;-60
2022/11/10 13:14:24;;;;;;;8.90;1.95;;;;;;;18.89;45.73;102137.41;5086431;28;20502;-59
2022/11/10 13:20:47;;;;;;;13.95;2.30;;;;;;;17.40;51.19;102130.53;5102882;27;20396;-60
2022/11/10 13:26:44;;;;;;;13.55;2.35;;;;;;;16.56;53.29;102126.88;5119154;27;20358;-58
2022/11/10 13:29:53;;;;;;;15.57;2.22;;;;;;;16.33;54.37;102131.09;5092362;27;20071;-59
2022/11/10 13:32:40;;;;;;;12.98;2.20;;;;;;;16.33;54.27;102131.94;5086375;28;20036;-60
2022/11/10 13:38:32;;;;;;;13.02;2.05;;;;;;;15.98;55.50;102132.88;5110030;27;20378;-60
2022/11/10 13:41:23;;;;;;;14.20;2.05;;;;;;;15.72;55.57;102133.66;5079010;28;20401;-58